sensor_id;sensor_type;location;lat;lon;timestamp;temperature;humidity
68764;DHT22;55754;52.038;5.566;2023-01-16T00:01:24;6.40;96.50
68764;DHT22;55754;52.038;5.566;2023-01-16T00:03:50;6.50;96.40
68764;DHT22;55754;52.038;5.566;2023-01-16T00:06:16;6.50;96.40
68764;DHT22;55754;52.038;5.566;2023-01-16T00:08:42;6.50;96.60
68764;DHT22;55754;52.038;5.566;2023-01-16T00:11:08;6.50;96.70
68764;DHT22;55754;52.038;5.566;2023-01-16T00:13:33;6.40;96.80
68764;DHT22;55754;52.038;5.566;2023-01-16T00:15:59;6.40;96.80
68764;DHT22;55754;52.038;5.566;2023-01-16T00:18:24;6.40;96.80
68764;DHT22;55754;52.038;5.566;2023-01-16T00:20:50;6.40;96.90
68764;DHT22;55754;52.038;5.566;2023-01-16T00:23:16;6.30;96.90
68764;DHT22;55754;52.038;5.566;2023-01-16T00:25:42;6.30;96.80
68764;DHT22;55754;52.038;5.566;2023-01-16T00:28:10;6.40;96.90
68764;DHT22;55754;52.038;5.566;2023-01-16T00:30:36;6.30;97.00
68764;DHT22;55754;52.038;5.566;2023-01-16T00:33:03;6.30;97.00
68764;DHT22;55754;52.038;5.566;2023-01-16T00:35:28;6.30;97.10
68764;DHT22;55754;52.038;5.566;2023-01-16T00:37:54;6.30;97.10
68764;DHT22;55754;52.038;5.566;2023-01-16T00:40:19;6.30;97.30
68764;DHT22;55754;52.038;5.566;2023-01-16T00:42:45;6.30;97.40
68764;DHT22;55754;52.038;5.566;2023-01-16T00:45:11;6.30;97.30
68764;DHT22;55754;52.038;5.566;2023-01-16T00:47:36;6.30;97.50
68764;DHT22;55754;52.038;5.566;2023-01-16T00:50:03;6.30;97.40
68764;DHT22;55754;52.038;5.566;2023-01-16T00:52:31;6.30;97.50
68764;DHT22;55754;52.038;5.566;2023-01-16T00:54:57;6.40;97.60
68764;DHT22;55754;52.038;5.566;2023-01-16T00:57:22;6.30;97.60
68764;DHT22;55754;52.038;5.566;2023-01-16T00:59:48;6.30;97.60
68764;DHT22;55754;52.038;5.566;2023-01-16T01:02:14;6.40;97.50
68764;DHT22;55754;52.038;5.566;2023-01-16T01:04:39;6.30;97.40
68764;DHT22;55754;52.038;5.566;2023-01-16T01:07:05;6.40;97.40
68764;DHT22;55754;52.038;5.566;2023-01-16T01:09:31;6.40;97.30
68764;DHT22;55754;52.038;5.566;2023-01-16T01:11:57;6.40;97.30
68764;DHT22;55754;52.038;5.566;2023-01-16T01:14:23;6.40;97.30
68764;DHT22;55754;52.038;5.566;2023-01-16T01:16:48;6.30;97.30
68764;DHT22;55754;52.038;5.566;2023-01-16T01:19:14;6.30;97.40
68764;DHT22;55754;52.038;5.566;2023-01-16T01:21:40;6.30;97.40
68764;DHT22;55754;52.038;5.566;2023-01-16T01:24:06;6.30;97.30
68764;DHT22;55754;52.038;5.566;2023-01-16T01:26:31;6.30;97.40
68764;DHT22;55754;52.038;5.566;2023-01-16T01:28:57;6.30;97.30
68764;DHT22;55754;52.038;5.566;2023-01-16T01:31:22;6.20;97.30
68764;DHT22;55754;52.038;5.566;2023-01-16T01:33:48;6.20;97.30
68764;DHT22;55754;52.038;5.566;2023-01-16T01:36:13;6.20;97.40
68764;DHT22;55754;52.038;5.566;2023-01-16T01:38:39;6.20;97.50
68764;DHT22;55754;52.038;5.566;2023-01-16T01:41:05;6.30;97.40
68764;DHT22;55754;52.038;5.566;2023-01-16T01:46:15;6.20;97.10
68764;DHT22;55754;52.038;5.566;2023-01-16T01:48:43;6.20;97.10
68764;DHT22;55754;52.038;5.566;2023-01-16T01:51:17;6.20;97.10
68764;DHT22;55754;52.038;5.566;2023-01-16T01:53:50;6.20;97.20
68764;DHT22;55754;52.038;5.566;2023-01-16T01:56:46;6.20;97.00
68764;DHT22;55754;52.038;5.566;2023-01-16T01:59:22;6.20;96.80
68764;DHT22;55754;52.038;5.566;2023-01-16T02:01:49;6.10;96.80
68764;DHT22;55754;52.038;5.566;2023-01-16T02:04:17;6.10;96.90
68764;DHT22;55754;52.038;5.566;2023-01-16T02:06:47;6.10;97.00
68764;DHT22;55754;52.038;5.566;2023-01-16T02:09:13;6.10;97.00
68764;DHT22;55754;52.038;5.566;2023-01-16T02:11:55;6.10;96.90
68764;DHT22;55754;52.038;5.566;2023-01-16T02:14:22;6.10;96.90
68764;DHT22;55754;52.038;5.566;2023-01-16T02:16:54;6.10;96.70
68764;DHT22;55754;52.038;5.566;2023-01-16T02:22:45;6.00;96.70
68764;DHT22;55754;52.038;5.566;2023-01-16T02:36:37;5.90;96.90
68764;DHT22;55754;52.038;5.566;2023-01-16T02:39:25;5.90;97.20
68764;DHT22;55754;52.038;5.566;2023-01-16T02:42:31;5.80;97.20
68764;DHT22;55754;52.038;5.566;2023-01-16T02:45:13;5.80;97.20
68764;DHT22;55754;52.038;5.566;2023-01-16T02:50:48;5.80;97.00
68764;DHT22;55754;52.038;5.566;2023-01-16T02:53:21;5.70;96.90
68764;DHT22;55754;52.038;5.566;2023-01-16T02:55:57;5.70;97.00
68764;DHT22;55754;52.038;5.566;2023-01-16T02:58:29;5.70;97.10
68764;DHT22;55754;52.038;5.566;2023-01-16T03:00:57;5.70;97.10
68764;DHT22;55754;52.038;5.566;2023-01-16T03:06:37;5.70;97.20
68764;DHT22;55754;52.038;5.566;2023-01-16T03:09:32;5.70;97.20
68764;DHT22;55754;52.038;5.566;2023-01-16T03:14:51;5.60;97.20
68764;DHT22;55754;52.038;5.566;2023-01-16T03:20:34;5.60;97.20
68764;DHT22;55754;52.038;5.566;2023-01-16T03:26:02;5.40;97.50
68764;DHT22;55754;52.038;5.566;2023-01-16T03:28:46;5.40;97.40
68764;DHT22;55754;52.038;5.566;2023-01-16T03:31:28;5.40;97.30
68764;DHT22;55754;52.038;5.566;2023-01-16T03:36:53;5.40;97.40
68764;DHT22;55754;52.038;5.566;2023-01-16T03:39:23;5.40;97.60
68764;DHT22;55754;52.038;5.566;2023-01-16T03:41:52;5.40;97.60
68764;DHT22;55754;52.038;5.566;2023-01-16T03:44:26;5.30;97.60
68764;DHT22;55754;52.038;5.566;2023-01-16T03:46:55;5.30;97.60
68764;DHT22;55754;52.038;5.566;2023-01-16T03:49:28;5.30;97.70
68764;DHT22;55754;52.038;5.566;2023-01-16T03:52:00;5.30;97.80
68764;DHT22;55754;52.038;5.566;2023-01-16T03:54:55;5.20;97.80
68764;DHT22;55754;52.038;5.566;2023-01-16T03:57:38;5.20;97.90
68764;DHT22;55754;52.038;5.566;2023-01-16T04:00:06;5.10;97.90
68764;DHT22;55754;52.038;5.566;2023-01-16T04:02:48;5.10;98.00
68764;DHT22;55754;52.038;5.566;2023-01-16T04:05:27;5.10;98.00
68764;DHT22;55754;52.038;5.566;2023-01-16T04:08:05;5.00;98.10
68764;DHT22;55754;52.038;5.566;2023-01-16T04:10:36;5.00;98.10
68764;DHT22;55754;52.038;5.566;2023-01-16T04:13:07;5.00;98.20
68764;DHT22;55754;52.038;5.566;2023-01-16T04:15:35;4.90;98.20
68764;DHT22;55754;52.038;5.566;2023-01-16T04:18:01;4.90;98.40
68764;DHT22;55754;52.038;5.566;2023-01-16T04:20:28;4.90;98.40
68764;DHT22;55754;52.038;5.566;2023-01-16T04:22:54;4.90;98.50
68764;DHT22;55754;52.038;5.566;2023-01-16T04:25:21;4.90;98.50
68764;DHT22;55754;52.038;5.566;2023-01-16T04:27:49;4.90;98.60
68764;DHT22;55754;52.038;5.566;2023-01-16T04:30:15;5.00;98.70
68764;DHT22;55754;52.038;5.566;2023-01-16T04:32:41;5.00;98.60
68764;DHT22;55754;52.038;5.566;2023-01-16T04:35:07;5.00;98.60
68764;DHT22;55754;52.038;5.566;2023-01-16T04:37:33;4.90;98.60
68764;DHT22;55754;52.038;5.566;2023-01-16T04:39:59;4.90;98.60
68764;DHT22;55754;52.038;5.566;2023-01-16T04:42:25;4.90;98.50
68764;DHT22;55754;52.038;5.566;2023-01-16T04:44:50;4.90;98.40
68764;DHT22;55754;52.038;5.566;2023-01-16T04:47:16;4.90;98.40
68764;DHT22;55754;52.038;5.566;2023-01-16T04:49:42;4.80;98.60
68764;DHT22;55754;52.038;5.566;2023-01-16T04:52:08;4.80;98.50
68764;DHT22;55754;52.038;5.566;2023-01-16T04:54:33;4.80;98.60
68764;DHT22;55754;52.038;5.566;2023-01-16T04:56:59;4.80;98.60
68764;DHT22;55754;52.038;5.566;2023-01-16T04:59:26;4.80;98.60
68764;DHT22;55754;52.038;5.566;2023-01-16T05:01:52;4.80;98.40
68764;DHT22;55754;52.038;5.566;2023-01-16T05:04:17;4.80;98.50
68764;DHT22;55754;52.038;5.566;2023-01-16T05:06:43;4.80;98.50
68764;DHT22;55754;52.038;5.566;2023-01-16T05:09:09;4.80;98.60
68764;DHT22;55754;52.038;5.566;2023-01-16T05:11:35;4.70;98.70
68764;DHT22;55754;52.038;5.566;2023-01-16T05:14:01;4.70;98.80
68764;DHT22;55754;52.038;5.566;2023-01-16T05:16:27;4.80;98.60
68764;DHT22;55754;52.038;5.566;2023-01-16T05:18:52;4.80;98.70
68764;DHT22;55754;52.038;5.566;2023-01-16T05:21:18;4.80;98.80
68764;DHT22;55754;52.038;5.566;2023-01-16T05:23:44;4.90;98.70
68764;DHT22;55754;52.038;5.566;2023-01-16T05:26:09;4.80;98.70
68764;DHT22;55754;52.038;5.566;2023-01-16T05:28:36;4.80;98.80
68764;DHT22;55754;52.038;5.566;2023-01-16T05:31:02;4.90;98.80
68764;DHT22;55754;52.038;5.566;2023-01-16T05:33:28;4.90;98.80
68764;DHT22;55754;52.038;5.566;2023-01-16T05:35:54;4.90;98.70
68764;DHT22;55754;52.038;5.566;2023-01-16T05:38:23;4.90;98.80
68764;DHT22;55754;52.038;5.566;2023-01-16T05:40:49;4.90;98.90
68764;DHT22;55754;52.038;5.566;2023-01-16T05:43:15;4.90;99.00
68764;DHT22;55754;52.038;5.566;2023-01-16T05:45:40;4.90;99.00
68764;DHT22;55754;52.038;5.566;2023-01-16T05:48:06;4.90;99.20
68764;DHT22;55754;52.038;5.566;2023-01-16T05:50:32;4.90;99.30
68764;DHT22;55754;52.038;5.566;2023-01-16T05:52:58;4.90;99.20
68764;DHT22;55754;52.038;5.566;2023-01-16T05:55:24;4.90;99.20
68764;DHT22;55754;52.038;5.566;2023-01-16T05:57:50;4.90;99.40
68764;DHT22;55754;52.038;5.566;2023-01-16T06:00:16;4.90;99.40
68764;DHT22;55754;52.038;5.566;2023-01-16T06:02:42;5.00;99.20
68764;DHT22;55754;52.038;5.566;2023-01-16T06:05:08;5.00;99.40
68764;DHT22;55754;52.038;5.566;2023-01-16T06:07:33;5.00;99.40
68764;DHT22;55754;52.038;5.566;2023-01-16T06:09:59;5.00;99.30
68764;DHT22;55754;52.038;5.566;2023-01-16T06:12:24;5.00;99.50
68764;DHT22;55754;52.038;5.566;2023-01-16T06:14:53;4.90;99.50
68764;DHT22;55754;52.038;5.566;2023-01-16T06:17:18;4.90;99.60
68764;DHT22;55754;52.038;5.566;2023-01-16T06:19:45;4.90;99.70
68764;DHT22;55754;52.038;5.566;2023-01-16T06:22:12;4.90;99.60
68764;DHT22;55754;52.038;5.566;2023-01-16T06:24:38;4.90;99.70
68764;DHT22;55754;52.038;5.566;2023-01-16T06:27:03;4.90;99.70
68764;DHT22;55754;52.038;5.566;2023-01-16T06:29:29;4.90;99.70
68764;DHT22;55754;52.038;5.566;2023-01-16T06:31:54;4.90;99.70
68764;DHT22;55754;52.038;5.566;2023-01-16T06:34:20;5.00;99.70
68764;DHT22;55754;52.038;5.566;2023-01-16T06:36:46;4.90;99.90
68764;DHT22;55754;52.038;5.566;2023-01-16T06:39:13;4.90;99.90
68764;DHT22;55754;52.038;5.566;2023-01-16T06:41:38;4.90;99.90
68764;DHT22;55754;52.038;5.566;2023-01-16T06:44:04;4.90;99.90
68764;DHT22;55754;52.038;5.566;2023-01-16T06:46:30;4.90;99.90
68764;DHT22;55754;52.038;5.566;2023-01-16T06:48:56;5.00;99.90
68764;DHT22;55754;52.038;5.566;2023-01-16T06:51:21;5.00;99.90
68764;DHT22;55754;52.038;5.566;2023-01-16T06:53:47;5.00;99.90
68764;DHT22;55754;52.038;5.566;2023-01-16T06:56:12;5.00;99.90
68764;DHT22;55754;52.038;5.566;2023-01-16T06:58:38;5.00;99.90
68764;DHT22;55754;52.038;5.566;2023-01-16T07:01:04;5.00;99.90
68764;DHT22;55754;52.038;5.566;2023-01-16T07:03:30;5.00;99.90
68764;DHT22;55754;52.038;5.566;2023-01-16T07:05:55;5.10;99.90
68764;DHT22;55754;52.038;5.566;2023-01-16T07:08:21;5.10;99.90
68764;DHT22;55754;52.038;5.566;2023-01-16T07:10:47;5.10;99.90
68764;DHT22;55754;52.038;5.566;2023-01-16T07:13:12;5.10;99.90
68764;DHT22;55754;52.038;5.566;2023-01-16T07:15:38;4.20;99.90
68764;DHT22;55754;52.038;5.566;2023-01-16T07:18:26;5.10;99.90
68764;DHT22;55754;52.038;5.566;2023-01-16T07:21:12;5.00;99.90
68764;DHT22;55754;52.038;5.566;2023-01-16T07:24:06;5.00;99.90
68764;DHT22;55754;52.038;5.566;2023-01-16T07:26:34;5.00;99.90
68764;DHT22;55754;52.038;5.566;2023-01-16T07:29:01;4.90;99.90
68764;DHT22;55754;52.038;5.566;2023-01-16T07:31:28;4.90;99.90
68764;DHT22;55754;52.038;5.566;2023-01-16T07:33:53;5.00;99.90
68764;DHT22;55754;52.038;5.566;2023-01-16T07:36:22;4.90;99.90
68764;DHT22;55754;52.038;5.566;2023-01-16T07:38:48;4.90;99.90
68764;DHT22;55754;52.038;5.566;2023-01-16T07:41:13;4.90;99.90
68764;DHT22;55754;52.038;5.566;2023-01-16T07:43:39;4.90;99.90
68764;DHT22;55754;52.038;5.566;2023-01-16T07:46:05;4.90;99.90
68764;DHT22;55754;52.038;5.566;2023-01-16T07:48:31;4.90;99.90
68764;DHT22;55754;52.038;5.566;2023-01-16T07:50:58;4.90;99.90
68764;DHT22;55754;52.038;5.566;2023-01-16T07:53:25;6.10;99.90
68764;DHT22;55754;52.038;5.566;2023-01-16T07:55:55;4.90;99.90
68764;DHT22;55754;52.038;5.566;2023-01-16T07:58:21;4.90;99.90
68764;DHT22;55754;52.038;5.566;2023-01-16T08:00:47;4.80;99.90
68764;DHT22;55754;52.038;5.566;2023-01-16T08:03:13;4.80;99.90
68764;DHT22;55754;52.038;5.566;2023-01-16T08:05:40;4.80;99.90
68764;DHT22;55754;52.038;5.566;2023-01-16T08:08:06;4.80;99.90
68764;DHT22;55754;52.038;5.566;2023-01-16T08:10:31;4.80;99.90
68764;DHT22;55754;52.038;5.566;2023-01-16T08:12:57;4.80;99.90
68764;DHT22;55754;52.038;5.566;2023-01-16T08:15:23;4.70;99.90
68764;DHT22;55754;52.038;5.566;2023-01-16T08:17:48;4.80;99.90
68764;DHT22;55754;52.038;5.566;2023-01-16T08:20:14;4.70;99.90
68764;DHT22;55754;52.038;5.566;2023-01-16T08:22:47;4.80;99.90
68764;DHT22;55754;52.038;5.566;2023-01-16T08:25:14;4.80;99.90
68764;DHT22;55754;52.038;5.566;2023-01-16T08:27:40;4.70;99.90
68764;DHT22;55754;52.038;5.566;2023-01-16T08:30:06;4.80;99.90
68764;DHT22;55754;52.038;5.566;2023-01-16T08:32:32;4.80;99.90
68764;DHT22;55754;52.038;5.566;2023-01-16T08:34:57;4.80;99.90
68764;DHT22;55754;52.038;5.566;2023-01-16T08:37:23;4.80;99.90
68764;DHT22;55754;52.038;5.566;2023-01-16T08:39:49;4.80;99.90
68764;DHT22;55754;52.038;5.566;2023-01-16T08:42:14;4.80;99.90
68764;DHT22;55754;52.038;5.566;2023-01-16T08:44:58;4.80;99.90
68764;DHT22;55754;52.038;5.566;2023-01-16T08:47:43;4.90;99.90
68764;DHT22;55754;52.038;5.566;2023-01-16T08:50:27;4.80;99.90
68764;DHT22;55754;52.038;5.566;2023-01-16T08:53:11;4.90;99.90
68764;DHT22;55754;52.038;5.566;2023-01-16T08:55:37;4.90;99.90
68764;DHT22;55754;52.038;5.566;2023-01-16T08:58:04;4.80;99.90
68764;DHT22;55754;52.038;5.566;2023-01-16T09:00:31;4.90;99.90
68764;DHT22;55754;52.038;5.566;2023-01-16T09:02:57;4.90;99.90
68764;DHT22;55754;52.038;5.566;2023-01-16T09:05:25;4.90;99.90
68764;DHT22;55754;52.038;5.566;2023-01-16T09:07:51;4.90;99.90
68764;DHT22;55754;52.038;5.566;2023-01-16T09:10:16;4.90;99.90
68764;DHT22;55754;52.038;5.566;2023-01-16T09:12:42;5.00;99.90
68764;DHT22;55754;52.038;5.566;2023-01-16T09:15:27;4.90;99.90
68764;DHT22;55754;52.038;5.566;2023-01-16T09:17:52;4.90;99.90
68764;DHT22;55754;52.038;5.566;2023-01-16T09:20:18;5.00;99.90
68764;DHT22;55754;52.038;5.566;2023-01-16T09:22:44;5.00;99.90
68764;DHT22;55754;52.038;5.566;2023-01-16T09:25:09;5.00;99.90
68764;DHT22;55754;52.038;5.566;2023-01-16T09:27:35;5.00;99.90
68764;DHT22;55754;52.038;5.566;2023-01-16T09:30:01;5.00;99.90
68764;DHT22;55754;52.038;5.566;2023-01-16T09:32:27;5.00;99.90
68764;DHT22;55754;52.038;5.566;2023-01-16T09:34:53;5.10;99.90
68764;DHT22;55754;52.038;5.566;2023-01-16T09:37:18;5.10;99.90
68764;DHT22;55754;52.038;5.566;2023-01-16T09:39:44;5.10;99.90
68764;DHT22;55754;52.038;5.566;2023-01-16T09:45:30;5.10;99.90
68764;DHT22;55754;52.038;5.566;2023-01-16T09:48:03;5.10;99.90
68764;DHT22;55754;52.038;5.566;2023-01-16T09:50:52;5.10;99.90
68764;DHT22;55754;52.038;5.566;2023-01-16T09:53:41;5.20;99.90
68764;DHT22;55754;52.038;5.566;2023-01-16T09:56:38;5.20;99.90
68764;DHT22;55754;52.038;5.566;2023-01-16T09:59:35;5.20;99.90
68764;DHT22;55754;52.038;5.566;2023-01-16T10:04:33;5.30;99.90
68764;DHT22;55754;52.038;5.566;2023-01-16T10:07:25;5.30;99.90
68764;DHT22;55754;52.038;5.566;2023-01-16T10:12:36;5.30;99.90
68764;DHT22;55754;52.038;5.566;2023-01-16T10:15:11;5.30;99.90
68764;DHT22;55754;52.038;5.566;2023-01-16T10:18:36;5.30;99.90
68764;DHT22;55754;52.038;5.566;2023-01-16T10:20:54;5.30;99.90
68764;DHT22;55754;52.038;5.566;2023-01-16T10:27:00;5.40;99.90
68764;DHT22;55754;52.038;5.566;2023-01-16T10:32:15;5.30;99.90
68764;DHT22;55754;52.038;5.566;2023-01-16T10:34:59;5.30;99.90
68764;DHT22;55754;52.038;5.566;2023-01-16T10:37:29;5.30;99.90
68764;DHT22;55754;52.038;5.566;2023-01-16T10:39:55;5.30;99.90
68764;DHT22;55754;52.038;5.566;2023-01-16T10:42:29;5.30;99.90
68764;DHT22;55754;52.038;5.566;2023-01-16T10:48:03;5.30;99.90
68764;DHT22;55754;52.038;5.566;2023-01-16T10:50:47;5.30;99.90
68764;DHT22;55754;52.038;5.566;2023-01-16T10:53:14;5.30;99.90
68764;DHT22;55754;52.038;5.566;2023-01-16T10:55:42;5.30;99.90
68764;DHT22;55754;52.038;5.566;2023-01-16T11:03:42;5.30;99.90
68764;DHT22;55754;52.038;5.566;2023-01-16T11:06:20;5.30;99.90
68764;DHT22;55754;52.038;5.566;2023-01-16T11:09:03;5.30;99.90
68764;DHT22;55754;52.038;5.566;2023-01-16T11:11:30;5.30;99.90
68764;DHT22;55754;52.038;5.566;2023-01-16T11:14:24;5.30;99.90
68764;DHT22;55754;52.038;5.566;2023-01-16T11:17:22;5.30;99.90
68764;DHT22;55754;52.038;5.566;2023-01-16T11:20:20;5.40;99.90
68764;DHT22;55754;52.038;5.566;2023-01-16T11:22:57;5.40;99.90
68764;DHT22;55754;52.038;5.566;2023-01-16T11:25:24;5.40;99.90
68764;DHT22;55754;52.038;5.566;2023-01-16T11:27:56;5.40;99.90
68764;DHT22;55754;52.038;5.566;2023-01-16T11:30:29;5.50;99.90
68764;DHT22;55754;52.038;5.566;2023-01-16T11:32:56;5.70;99.90
68764;DHT22;55754;52.038;5.566;2023-01-16T11:35:32;5.70;99.90
68764;DHT22;55754;52.038;5.566;2023-01-16T11:37:58;5.80;99.90
68764;DHT22;55754;52.038;5.566;2023-01-16T11:40:26;5.90;99.90
68764;DHT22;55754;52.038;5.566;2023-01-16T11:42:56;6.00;99.90
68764;DHT22;55754;52.038;5.566;2023-01-16T11:45:46;6.00;99.90
68764;DHT22;55754;52.038;5.566;2023-01-16T11:48:43;6.00;99.90
68764;DHT22;55754;52.038;5.566;2023-01-16T11:51:19;6.00;99.90
68764;DHT22;55754;52.038;5.566;2023-01-16T11:53:50;6.00;99.90
68764;DHT22;55754;52.038;5.566;2023-01-16T11:59:05;6.00;99.90
68764;DHT22;55754;52.038;5.566;2023-01-16T12:01:41;6.00;99.90
68764;DHT22;55754;52.038;5.566;2023-01-16T12:04:29;6.00;99.90
68764;DHT22;55754;52.038;5.566;2023-01-16T12:07:17;6.00;99.90
68764;DHT22;55754;52.038;5.566;2023-01-16T12:09:53;6.00;99.90
68764;DHT22;55754;52.038;5.566;2023-01-16T12:12:31;6.00;99.90
68764;DHT22;55754;52.038;5.566;2023-01-16T12:23:40;6.00;99.90
68764;DHT22;55754;52.038;5.566;2023-01-16T12:26:29;6.00;99.90
68764;DHT22;55754;52.038;5.566;2023-01-16T12:29:21;6.00;99.90
68764;DHT22;55754;52.038;5.566;2023-01-16T12:32:04;6.00;99.90
68764;DHT22;55754;52.038;5.566;2023-01-16T12:40:07;6.10;99.90
68764;DHT22;55754;52.038;5.566;2023-01-16T12:59:30;6.00;99.90
68764;DHT22;55754;52.038;5.566;2023-01-16T13:05:18;6.00;99.90
68764;DHT22;55754;52.038;5.566;2023-01-16T13:08:14;6.10;99.90
68764;DHT22;55754;52.038;5.566;2023-01-16T13:10:45;6.10;99.90
68764;DHT22;55754;52.038;5.566;2023-01-16T13:13:33;6.10;99.90
68764;DHT22;55754;52.038;5.566;2023-01-16T13:16:22;6.10;99.90
68764;DHT22;55754;52.038;5.566;2023-01-16T13:18:55;6.10;99.90
68764;DHT22;55754;52.038;5.566;2023-01-16T13:21:27;6.10;99.90
68764;DHT22;55754;52.038;5.566;2023-01-16T13:24:03;6.10;99.90
68764;DHT22;55754;52.038;5.566;2023-01-16T13:26:31;6.10;99.90
68764;DHT22;55754;52.038;5.566;2023-01-16T13:29:07;6.10;99.90
68764;DHT22;55754;52.038;5.566;2023-01-16T13:31:45;6.10;99.90
68764;DHT22;55754;52.038;5.566;2023-01-16T13:34:18;6.10;99.90
68764;DHT22;55754;52.038;5.566;2023-01-16T13:40:14;6.10;99.90
68764;DHT22;55754;52.038;5.566;2023-01-16T13:43:16;6.10;99.90
68764;DHT22;55754;52.038;5.566;2023-01-16T13:46:01;6.10;99.90
68764;DHT22;55754;52.038;5.566;2023-01-16T13:48:32;6.10;99.90
68764;DHT22;55754;52.038;5.566;2023-01-16T13:50:58;6.10;99.90
68764;DHT22;55754;52.038;5.566;2023-01-16T13:53:25;6.10;99.90
68764;DHT22;55754;52.038;5.566;2023-01-16T13:56:09;6.10;99.90
68764;DHT22;55754;52.038;5.566;2023-01-16T13:58:45;6.10;99.90
68764;DHT22;55754;52.038;5.566;2023-01-16T14:06:54;6.20;99.90
68764;DHT22;55754;52.038;5.566;2023-01-16T14:09:58;6.10;99.90
68764;DHT22;55754;52.038;5.566;2023-01-16T14:12:33;6.10;99.90
68764;DHT22;55754;52.038;5.566;2023-01-16T14:15:20;6.10;99.90
68764;DHT22;55754;52.038;5.566;2023-01-16T14:18:17;6.10;99.90
68764;DHT22;55754;52.038;5.566;2023-01-16T14:23:28;6.10;99.90
68764;DHT22;55754;52.038;5.566;2023-01-16T14:31:51;6.00;99.90
68764;DHT22;55754;52.038;5.566;2023-01-16T14:34:21;6.00;99.90
68764;DHT22;55754;52.038;5.566;2023-01-16T14:36:52;6.00;99.90
68764;DHT22;55754;52.038;5.566;2023-01-16T14:39:34;5.90;99.90
68764;DHT22;55754;52.038;5.566;2023-01-16T14:42:21;6.00;99.90
68764;DHT22;55754;52.038;5.566;2023-01-16T14:45:15;6.30;99.90
68764;DHT22;55754;52.038;5.566;2023-01-16T14:50:59;5.90;99.90
68764;DHT22;55754;52.038;5.566;2023-01-16T14:53:46;6.00;99.90
68764;DHT22;55754;52.038;5.566;2023-01-16T14:56:32;6.00;99.90
68764;DHT22;55754;52.038;5.566;2023-01-16T14:59:05;6.00;99.90
68764;DHT22;55754;52.038;5.566;2023-01-16T15:01:42;6.00;99.90
68764;DHT22;55754;52.038;5.566;2023-01-16T15:04:53;5.90;99.90
68764;DHT22;55754;52.038;5.566;2023-01-16T15:07:29;6.00;99.90
68764;DHT22;55754;52.038;5.566;2023-01-16T15:10:02;6.00;99.90
68764;DHT22;55754;52.038;5.566;2023-01-16T15:12:40;6.00;99.90
68764;DHT22;55754;52.038;5.566;2023-01-16T15:15:19;6.00;99.90
68764;DHT22;55754;52.038;5.566;2023-01-16T15:17:45;6.00;99.90
68764;DHT22;55754;52.038;5.566;2023-01-16T15:20:31;5.90;99.90
68764;DHT22;55754;52.038;5.566;2023-01-16T15:23:37;6.00;99.90
68764;DHT22;55754;52.038;5.566;2023-01-16T15:31:17;5.90;99.90
68764;DHT22;55754;52.038;5.566;2023-01-16T15:33:44;5.90;99.90
68764;DHT22;55754;52.038;5.566;2023-01-16T15:36:43;5.90;99.90
68764;DHT22;55754;52.038;5.566;2023-01-16T15:39:22;6.00;99.90
68764;DHT22;55754;52.038;5.566;2023-01-16T15:41:55;6.00;99.90
68764;DHT22;55754;52.038;5.566;2023-01-16T15:44:42;6.00;99.90
68764;DHT22;55754;52.038;5.566;2023-01-16T15:50:37;6.10;99.90
68764;DHT22;55754;52.038;5.566;2023-01-16T15:53:05;6.10;99.90
68764;DHT22;55754;52.038;5.566;2023-01-16T15:55:41;6.10;99.90
68764;DHT22;55754;52.038;5.566;2023-01-16T15:58:21;6.10;99.90
68764;DHT22;55754;52.038;5.566;2023-01-16T16:00:56;6.10;99.90
68764;DHT22;55754;52.038;5.566;2023-01-16T16:03:23;6.10;99.90
68764;DHT22;55754;52.038;5.566;2023-01-16T16:06:04;6.10;99.90
68764;DHT22;55754;52.038;5.566;2023-01-16T16:08:37;6.10;99.90
68764;DHT22;55754;52.038;5.566;2023-01-16T16:11:06;6.20;99.90
68764;DHT22;55754;52.038;5.566;2023-01-16T16:13:51;6.30;99.90
68764;DHT22;55754;52.038;5.566;2023-01-16T16:16:22;6.20;99.90
68764;DHT22;55754;52.038;5.566;2023-01-16T16:19:07;6.20;99.90
68764;DHT22;55754;52.038;5.566;2023-01-16T16:21:48;6.20;99.90
68764;DHT22;55754;52.038;5.566;2023-01-16T16:24:34;6.20;99.90
68764;DHT22;55754;52.038;5.566;2023-01-16T16:27:11;6.20;99.90
68764;DHT22;55754;52.038;5.566;2023-01-16T16:29:37;6.30;99.90
68764;DHT22;55754;52.038;5.566;2023-01-16T16:32:05;6.20;99.90
68764;DHT22;55754;52.038;5.566;2023-01-16T16:34:35;6.30;99.90
68764;DHT22;55754;52.038;5.566;2023-01-16T16:37:02;6.30;99.90
68764;DHT22;55754;52.038;5.566;2023-01-16T16:39:45;6.30;99.90
68764;DHT22;55754;52.038;5.566;2023-01-16T16:47:35;6.20;99.90
68764;DHT22;55754;52.038;5.566;2023-01-16T16:50:23;6.20;99.90
68764;DHT22;55754;52.038;5.566;2023-01-16T16:52:48;6.30;99.90
68764;DHT22;55754;52.038;5.566;2023-01-16T16:55:44;6.20;99.90
68764;DHT22;55754;52.038;5.566;2023-01-16T16:58:15;6.20;99.90
68764;DHT22;55754;52.038;5.566;2023-01-16T17:00:45;6.20;99.90
68764;DHT22;55754;52.038;5.566;2023-01-16T17:03:16;7.70;99.90
68764;DHT22;55754;52.038;5.566;2023-01-16T17:05:43;6.20;99.90
68764;DHT22;55754;52.038;5.566;2023-01-16T17:08:16;6.20;99.90
68764;DHT22;55754;52.038;5.566;2023-01-16T17:10:43;6.20;99.90
68764;DHT22;55754;52.038;5.566;2023-01-16T17:13:14;6.20;99.90
68764;DHT22;55754;52.038;5.566;2023-01-16T17:15:40;6.20;99.90
68764;DHT22;55754;52.038;5.566;2023-01-16T17:18:08;6.20;99.90
68764;DHT22;55754;52.038;5.566;2023-01-16T17:20:34;6.20;99.90
68764;DHT22;55754;52.038;5.566;2023-01-16T17:23:01;6.20;99.90
68764;DHT22;55754;52.038;5.566;2023-01-16T17:25:26;6.20;99.90
68764;DHT22;55754;52.038;5.566;2023-01-16T17:27:53;6.20;99.90
68764;DHT22;55754;52.038;5.566;2023-01-16T17:30:20;6.20;99.90
68764;DHT22;55754;52.038;5.566;2023-01-16T17:32:57;6.20;99.90
68764;DHT22;55754;52.038;5.566;2023-01-16T17:35:24;6.20;99.90
68764;DHT22;55754;52.038;5.566;2023-01-16T17:37:50;6.20;99.90
68764;DHT22;55754;52.038;5.566;2023-01-16T17:40:15;6.20;99.90
68764;DHT22;55754;52.038;5.566;2023-01-16T17:42:41;6.20;99.90
68764;DHT22;55754;52.038;5.566;2023-01-16T17:45:42;6.20;99.90
68764;DHT22;55754;52.038;5.566;2023-01-16T17:48:29;6.10;99.90
68764;DHT22;55754;52.038;5.566;2023-01-16T17:50:56;6.10;99.90
68764;DHT22;55754;52.038;5.566;2023-01-16T17:53:24;6.10;99.90
68764;DHT22;55754;52.038;5.566;2023-01-16T17:55:51;6.10;99.90
68764;DHT22;55754;52.038;5.566;2023-01-16T18:01:02;6.00;99.90
68764;DHT22;55754;52.038;5.566;2023-01-16T18:03:29;6.00;99.90
68764;DHT22;55754;52.038;5.566;2023-01-16T18:06:06;5.90;99.90
68764;DHT22;55754;52.038;5.566;2023-01-16T18:08:32;5.90;99.90
68764;DHT22;55754;52.038;5.566;2023-01-16T18:11:00;5.80;99.90
68764;DHT22;55754;52.038;5.566;2023-01-16T18:13:46;5.80;99.90
68764;DHT22;55754;52.038;5.566;2023-01-16T18:16:30;5.80;99.90
68764;DHT22;55754;52.038;5.566;2023-01-16T18:19:14;5.70;99.90
68764;DHT22;55754;52.038;5.566;2023-01-16T18:21:39;5.70;99.90
68764;DHT22;55754;52.038;5.566;2023-01-16T18:24:23;5.60;99.90
68764;DHT22;55754;52.038;5.566;2023-01-16T18:26:49;5.60;99.90
68764;DHT22;55754;52.038;5.566;2023-01-16T18:29:14;5.60;99.90